Time;durP1;ratioP1;P1;durP2;ratioP2;P2;SDS_P1;SDS_P2;PMS_P1;PMS_P2;Temp;Humidity;BMP_temperature;BMP_pressure;BME280_temperature;BME280_humidity;BME280_pressure;Samples;Min_cycle;Max_cycle;Signal;HPM_P1;HPM_P2
2022/02/24 00:21:49;;;;;;;8.05;3.42;;;;;;;;;;4414217;26;20951;-69
2022/02/24 00:26:08;;;;;;;4.80;3.05;;;;;;;;;;5173987;27;20152;-71
2022/02/24 00:28:54;;;;;;;4.57;3.03;;;;;;;;;;5063563;27;1293849;-73
2022/02/24 00:31:39;;;;;;;7.57;3.92;;;;;;;;;;5085047;28;20583;-73
2022/02/24 00:34:24;;;;;;;5.72;2.85;;;;;;;;;;5083427;28;20099;-73
2022/02/24 00:37:10;;;;;;;6.60;3.60;;;;;;;;;;5104628;28;20086;-62
2022/02/24 00:39:55;;;;;;;7.35;3.42;;;;;;;;;;5084225;28;21653;-69
2022/02/24 00:42:40;;;;;;;5.25;3.40;;;;;;;;;;5084045;28;20046;-70
2022/02/24 00:45:26;;;;;;;6.07;3.20;;;;;;;;;;5083222;28;20028;-66
2022/02/24 00:48:11;;;;;;;5.10;3.10;;;;;;;;;;5085247;28;20090;-67
2022/02/24 00:50:56;;;;;;;6.18;3.83;;;;;;;;;;5076782;28;20028;-70
2022/02/24 00:53:41;;;;;;;5.00;2.83;;;;;;;;;;5088058;28;20024;-71
2022/02/24 00:56:27;;;;;;;9.13;3.50;;;;;;;;;;5092127;28;20027;-66
2022/02/24 00:59:12;;;;;;;6.38;3.03;;;;;;;;;;5084943;28;20020;-65
2022/02/24 01:01:57;;;;;;;5.90;3.13;;;;;;;;;;5082958;28;20545;-65
2022/02/24 01:04:42;;;;;;;6.03;3.47;;;;;;;;;;5083378;28;20393;-63
2022/02/24 01:07:28;;;;;;;7.30;3.20;;;;;;;;;;5084090;28;20023;-62
2022/02/24 01:10:13;;;;;;;4.95;3.10;;;;;;;;;;5102127;28;20024;-61
2022/02/24 01:12:58;;;;;;;4.90;2.67;;;;;;;;;;5092515;28;20035;-68
2022/02/24 01:15:44;;;;;;;6.05;2.85;;;;;;;;;;5081867;28;20039;-72
2022/02/24 01:18:29;;;;;;;6.30;2.72;;;;;;;;;;5084424;28;20024;-73
2022/02/24 01:21:15;;;;;;;8.73;3.97;;;;;;;;;;5060413;28;20043;-73
2022/02/24 01:24:00;;;;;;;6.88;3.30;;;;;;;;;;5066167;28;20033;-71
2022/02/24 01:26:45;;;;;;;4.68;2.70;;;;;;;;;;5061780;28;20029;-74
2022/02/24 01:29:31;;;;;;;4.57;2.42;;;;;;;;;;5058064;28;20032;-72
2022/02/24 01:32:16;;;;;;;5.75;2.92;;;;;;;;;;5068982;28;20024;-61
2022/02/24 01:35:01;;;;;;;5.75;2.67;;;;;;;;;;5074649;28;20043;-69
2022/02/24 01:37:47;;;;;;;5.38;2.92;;;;;;;;;;5065532;28;20382;-69
2022/02/24 01:40:32;;;;;;;3.80;2.65;;;;;;;;;;5056615;28;20191;-69
2022/02/24 01:43:17;;;;;;;4.28;2.47;;;;;;;;;;5050373;28;20396;-69
2022/02/24 01:46:02;;;;;;;7.28;3.60;;;;;;;;;;5042422;28;20049;-71
2022/02/24 01:48:48;;;;;;;9.13;2.95;;;;;;;;;;5048313;28;20032;-69
2022/02/24 01:51:33;;;;;;;6.82;2.92;;;;;;;;;;5056523;28;20406;-62
2022/02/24 01:54:19;;;;;;;5.07;2.72;;;;;;;;;;5057167;28;20029;-62
2022/02/24 01:57:04;;;;;;;4.53;2.40;;;;;;;;;;5055786;28;20032;-63
2022/02/24 01:59:50;;;;;;;5.57;2.85;;;;;;;;;;5072494;28;20483;-64
2022/02/24 02:02:35;;;;;;;4.85;2.47;;;;;;;;;;5041052;28;20043;-63
2022/02/24 02:05:20;;;;;;;5.82;2.97;;;;;;;;;;5051827;28;20154;-62
2022/02/24 02:08:06;;;;;;;7.88;3.63;;;;;;;;;;5071724;28;20020;-65
2022/02/24 02:10:51;;;;;;;5.95;2.70;;;;;;;;;;5057903;28;20024;-61
2022/02/24 02:13:36;;;;;;;7.00;3.05;;;;;;;;;;5056842;28;20040;-62
2022/02/24 02:16:22;;;;;;;6.10;2.72;;;;;;;;;;5052087;28;20033;-61
2022/02/24 02:19:07;;;;;;;6.43;2.45;;;;;;;;;;5049424;28;20025;-61
2022/02/24 02:21:52;;;;;;;6.70;2.50;;;;;;;;;;5054811;28;20025;-63
2022/02/24 02:24:38;;;;;;;4.75;2.88;;;;;;;;;;5051089;28;20068;-62
2022/02/24 02:27:23;;;;;;;7.38;3.00;;;;;;;;;;5051493;28;20063;-61
2022/02/24 02:30:08;;;;;;;4.38;2.20;;;;;;;;;;5056473;28;20474;-67
2022/02/24 02:32:54;;;;;;;6.18;2.72;;;;;;;;;;5053759;28;20040;-66
2022/02/24 02:35:39;;;;;;;3.88;2.38;;;;;;;;;;5054624;28;20051;-66
2022/02/24 02:38:25;;;;;;;5.78;2.17;;;;;;;;;;5052912;28;20040;-65
2022/02/24 02:41:10;;;;;;;5.57;2.50;;;;;;;;;;5055239;28;20712;-64
2022/02/24 02:43:55;;;;;;;3.97;2.33;;;;;;;;;;5054767;28;20043;-64
2022/02/24 02:46:41;;;;;;;4.38;2.28;;;;;;;;;;5052781;28;20024;-68
2022/02/24 02:49:26;;;;;;;4.70;2.35;;;;;;;;;;5053456;28;20103;-60
2022/02/24 02:52:11;;;;;;;5.70;2.08;;;;;;;;;;5054769;28;20020;-60
2022/02/24 02:55:07;;;;;;;4.20;2.30;;;;;;;;;;5055710;28;20532;-60
2022/02/24 02:57:52;;;;;;;3.30;2.17;;;;;;;;;;5056033;28;20041;-62
2022/02/24 03:00:39;;;;;;;6.30;2.20;;;;;;;;;;5052994;28;20016;-61
2022/02/24 03:03:24;;;;;;;5.22;2.38;;;;;;;;;;5051945;28;20028;-63
2022/02/24 03:06:10;;;;;;;3.70;2.25;;;;;;;;;;5055894;28;20483;-73
2022/02/24 03:08:55;;;;;;;4.20;2.33;;;;;;;;;;5056416;28;20086;-60
2022/02/24 03:11:40;;;;;;;3.42;1.88;;;;;;;;;;5053093;28;20217;-64
2022/02/24 03:14:26;;;;;;;5.53;2.67;;;;;;;;;;5037475;28;20028;-62
2022/02/24 03:17:11;;;;;;;4.80;2.90;;;;;;;;;;5050810;28;20028;-62
2022/02/24 03:19:56;;;;;;;5.82;2.60;;;;;;;;;;5054303;28;20466;-61
2022/02/24 03:22:42;;;;;;;8.27;2.55;;;;;;;;;;5053526;28;20149;-65
2022/02/24 03:25:27;;;;;;;5.18;2.85;;;;;;;;;;5056711;28;20040;-68
2022/02/24 03:28:12;;;;;;;4.32;2.45;;;;;;;;;;5054732;28;20099;-64
2022/02/24 03:30:58;;;;;;;9.70;3.25;;;;;;;;;;5051918;28;20526;-64
2022/02/24 03:33:43;;;;;;;3.53;2.40;;;;;;;;;;5052141;28;20025;-66
2022/02/24 03:36:28;;;;;;;3.60;2.05;;;;;;;;;;5054149;28;20382;-65
2022/02/24 03:39:13;;;;;;;4.35;2.33;;;;;;;;;;5053938;28;20025;-64
2022/02/24 03:41:59;;;;;;;5.47;2.72;;;;;;;;;;5066983;28;20036;-70
2022/02/24 03:44:45;;;;;;;3.20;2.20;;;;;;;;;;5053993;28;20577;-60
2022/02/24 03:47:30;;;;;;;5.70;2.20;;;;;;;;;;5050688;28;20044;-58
2022/02/24 03:50:16;;;;;;;9.60;3.75;;;;;;;;;;5057100;28;20032;-62
2022/02/24 03:53:01;;;;;;;3.95;2.53;;;;;;;;;;5053049;28;20020;-63
2022/02/24 03:55:47;;;;;;;4.70;2.55;;;;;;;;;;5040173;28;20360;-61
2022/02/24 03:58:32;;;;;;;6.22;2.90;;;;;;;;;;5037261;28;20028;-67
2022/02/24 04:01:18;;;;;;;5.40;2.78;;;;;;;;;;5040466;28;20036;-60
2022/02/24 04:04:04;;;;;;;4.68;2.58;;;;;;;;;;5063936;28;20107;-62
2022/02/24 04:06:49;;;;;;;6.55;2.63;;;;;;;;;;5054182;28;20028;-61
2022/02/24 04:09:35;;;;;;;4.30;2.35;;;;;;;;;;5040978;28;20028;-62
2022/02/24 04:12:20;;;;;;;6.65;2.63;;;;;;;;;;5051351;28;20112;-65
2022/02/24 04:15:06;;;;;;;4.00;2.22;;;;;;;;;;5049846;28;20028;-65
2022/02/24 04:17:51;;;;;;;6.80;3.33;;;;;;;;;;5052873;28;20041;-63
2022/02/24 04:20:36;;;;;;;4.55;2.88;;;;;;;;;;5053937;28;20048;-65
2022/02/24 04:23:21;;;;;;;4.95;3.42;;;;;;;;;;5052369;28;20142;-62
2022/02/24 04:26:06;;;;;;;6.10;2.80;;;;;;;;;;5053605;28;20494;-63
2022/02/24 04:28:52;;;;;;;6.63;2.80;;;;;;;;;;5054458;28;20028;-61
2022/02/24 04:31:37;;;;;;;5.70;2.80;;;;;;;;;;5086612;28;20105;-61
2022/02/24 04:34:23;;;;;;;6.50;2.60;;;;;;;;;;5081083;28;20040;-60
2022/02/24 04:37:08;;;;;;;3.65;1.92;;;;;;;;;;5087769;28;20537;-66
2022/02/24 04:39:53;;;;;;;3.97;2.25;;;;;;;;;;5088211;28;20047;-60
2022/02/24 04:42:38;;;;;;;3.67;2.17;;;;;;;;;;5087003;28;20032;-61
2022/02/24 04:45:24;;;;;;;4.53;3.00;;;;;;;;;;5067339;28;20036;-61
2022/02/24 04:48:10;;;;;;;7.43;2.80;;;;;;;;;;5101787;28;20035;-64
2022/02/24 04:50:56;;;;;;;4.25;2.30;;;;;;;;;;5086528;28;20032;-62
2022/02/24 04:53:41;;;;;;;4.03;2.42;;;;;;;;;;5091445;28;20020;-64
2022/02/24 04:56:26;;;;;;;6.78;2.50;;;;;;;;;;5094394;28;20064;-63
2022/02/24 04:59:11;;;;;;;5.63;2.83;;;;;;;;;;5099913;28;20027;-63
2022/02/24 05:01:57;;;;;;;5.20;2.72;;;;;;;;;;5085424;28;20081;-61
2022/02/24 05:04:42;;;;;;;4.47;2.40;;;;;;;;;;5086428;28;20026;-62
2022/02/24 05:07:27;;;;;;;5.18;2.80;;;;;;;;;;5091098;28;20036;-61
2022/02/24 05:10:12;;;;;;;5.25;2.10;;;;;;;;;;5098873;28;20884;-64
2022/02/24 05:12:58;;;;;;;5.07;2.63;;;;;;;;;;5090155;28;20044;-63
2022/02/24 05:15:43;;;;;;;5.75;2.20;;;;;;;;;;5084544;28;20424;-66
2022/02/24 05:18:28;;;;;;;4.68;2.05;;;;;;;;;;5087457;28;20459;-65
2022/02/24 05:21:13;;;;;;;7.20;2.63;;;;;;;;;;5084396;28;20037;-64
2022/02/24 05:23:59;;;;;;;5.32;2.40;;;;;;;;;;5092656;28;20028;-64
2022/02/24 05:26:44;;;;;;;5.28;2.60;;;;;;;;;;5089854;28;20028;-65
2022/02/24 05:29:29;;;;;;;4.28;2.20;;;;;;;;;;5091396;28;20028;-64
2022/02/24 05:32:14;;;;;;;5.00;2.55;;;;;;;;;;5085058;28;20024;-68
2022/02/24 05:35:00;;;;;;;8.88;2.75;;;;;;;;;;5091593;28;20035;-68
2022/02/24 05:37:45;;;;;;;6.95;3.03;;;;;;;;;;5091871;28;20032;-66
2022/02/24 05:40:30;;;;;;;5.97;2.63;;;;;;;;;;5091318;28;20028;-68
2022/02/24 05:43:15;;;;;;;6.00;2.78;;;;;;;;;;5093028;28;20028;-69
2022/02/24 05:46:01;;;;;;;5.88;2.58;;;;;;;;;;5092247;28;20040;-67
2022/02/24 05:48:46;;;;;;;6.65;2.90;;;;;;;;;;5088494;28;20024;-60
2022/02/24 05:51:31;;;;;;;9.00;2.88;;;;;;;;;;5092370;28;20035;-63
2022/02/24 05:54:17;;;;;;;5.55;3.10;;;;;;;;;;5094029;28;20031;-64
2022/02/24 05:57:02;;;;;;;8.00;3.50;;;;;;;;;;5088562;28;20027;-63
2022/02/24 05:59:47;;;;;;;9.40;3.17;;;;;;;;;;5090438;28;20107;-62
2022/02/24 06:02:33;;;;;;;11.82;3.47;;;;;;;;;;5088845;28;20155;-61
2022/02/24 06:05:18;;;;;;;7.18;3.17;;;;;;;;;;5089529;28;20036;-62
2022/02/24 06:08:04;;;;;;;6.90;2.70;;;;;;;;;;5089008;28;20478;-62
2022/02/24 06:10:49;;;;;;;7.65;2.88;;;;;;;;;;5089973;28;20458;-62
2022/02/24 06:13:35;;;;;;;7.78;3.03;;;;;;;;;;5092188;28;20043;-64
2022/02/24 06:16:20;;;;;;;5.20;3.25;;;;;;;;;;5092146;28;20031;-65
2022/02/24 06:19:05;;;;;;;7.70;3.10;;;;;;;;;;5089081;28;20387;-64
2022/02/24 06:21:52;;;;;;;6.15;3.05;;;;;;;;;;5087764;28;20024;-63
2022/02/24 06:24:37;;;;;;;12.57;3.50;;;;;;;;;;5096430;28;20099;-62
2022/02/24 06:27:22;;;;;;;9.13;3.63;;;;;;;;;;5089004;28;20156;-61
2022/02/24 06:30:08;;;;;;;7.35;3.33;;;;;;;;;;5084794;28;20092;-65
2022/02/24 06:32:53;;;;;;;7.85;3.00;;;;;;;;;;5088066;28;20474;-60
2022/02/24 06:35:38;;;;;;;7.07;3.05;;;;;;;;;;5104953;27;20045;-60
2022/02/24 06:38:23;;;;;;;6.30;3.10;;;;;;;;;;5089314;28;20040;-61
2022/02/24 06:41:09;;;;;;;7.93;3.63;;;;;;;;;;5090359;28;20024;-64
2022/02/24 06:43:54;;;;;;;10.27;3.78;;;;;;;;;;5088365;28;20039;-72
2022/02/24 06:46:40;;;;;;;9.82;4.30;;;;;;;;;;5103869;27;20520;-63
2022/02/24 06:49:25;;;;;;;11.75;3.80;;;;;;;;;;5087307;28;20093;-70
2022/02/24 06:52:10;;;;;;;10.65;4.00;;;;;;;;;;5089434;28;20032;-68
2022/02/24 06:54:56;;;;;;;9.30;4.60;;;;;;;;;;5091914;28;20478;-67
2022/02/24 06:57:48;;;;;;;7.40;4.00;;;;;;;;;;5100797;28;20062;-66
2022/02/24 07:00:33;;;;;;;9.90;4.38;;;;;;;;;;5077825;28;20024;-71
2022/02/24 07:03:19;;;;;;;7.45;4.22;;;;;;;;;;5086836;28;20024;-64
2022/02/24 07:06:04;;;;;;;9.25;4.57;;;;;;;;;;5083830;28;20065;-65
2022/02/24 07:08:49;;;;;;;8.40;4.97;;;;;;;;;;5084592;28;20028;-65
2022/02/24 07:11:34;;;;;;;8.60;3.83;;;;;;;;;;5089819;28;20032;-65
2022/02/24 07:14:20;;;;;;;7.85;4.10;;;;;;;;;;5082206;28;20027;-64
2022/02/24 07:17:05;;;;;;;8.50;3.90;;;;;;;;;;5085796;28;20120;-65
2022/02/24 07:19:50;;;;;;;10.73;4.32;;;;;;;;;;5086270;28;20027;-65
2022/02/24 07:22:35;;;;;;;10.35;4.38;;;;;;;;;;5086194;28;20513;-62
2022/02/24 07:25:21;;;;;;;8.95;4.55;;;;;;;;;;5087457;28;20462;-61
2022/02/24 07:28:07;;;;;;;12.93;4.97;;;;;;;;;;5088099;28;20024;-63
2022/02/24 07:30:53;;;;;;;16.15;5.13;;;;;;;;;;5085675;28;20031;-63
2022/02/24 07:33:38;;;;;;;11.20;5.63;;;;;;;;;;5087649;28;20034;-61
2022/02/24 07:36:23;;;;;;;8.00;4.57;;;;;;;;;;5084657;28;20054;-62
2022/02/24 07:39:10;;;;;;;10.35;4.32;;;;;;;;;;5085812;28;20066;-63
2022/02/24 07:41:56;;;;;;;12.35;4.85;;;;;;;;;;5077167;28;20053;-70
2022/02/24 07:44:41;;;;;;;12.75;4.68;;;;;;;;;;5087916;28;20024;-71
2022/02/24 07:47:26;;;;;;;9.57;4.78;;;;;;;;;;5090084;28;20082;-69
2022/02/24 07:50:13;;;;;;;9.43;5.88;;;;;;;;;;5090614;28;20027;-69
2022/02/24 07:52:59;;;;;;;9.15;5.10;;;;;;;;;;5086956;28;20043;-71
2022/02/24 07:55:44;;;;;;;11.98;4.97;;;;;;;;;;5094689;28;20500;-70
2022/02/24 07:58:29;;;;;;;10.50;4.95;;;;;;;;;;5085264;28;20367;-69
2022/02/24 08:01:15;;;;;;;10.25;5.40;;;;;;;;;;5086164;28;20501;-61
2022/02/24 08:04:00;;;;;;;11.10;5.30;;;;;;;;;;5084297;28;20053;-63
2022/02/24 08:06:45;;;;;;;9.15;5.18;;;;;;;;;;5083770;28;20059;-61
2022/02/24 08:09:31;;;;;;;8.30;5.18;;;;;;;;;;5085326;28;20016;-62
2022/02/24 08:15:21;;;;;;;10.30;5.65;;;;;;;;;;5101859;28;20020;-66
2022/02/24 08:18:07;;;;;;;8.63;5.60;;;;;;;;;;5105897;27;20051;-61
2022/02/24 08:20:52;;;;;;;9.88;5.03;;;;;;;;;;5087243;28;20020;-61
2022/02/24 08:23:37;;;;;;;10.30;5.38;;;;;;;;;;5086001;28;20444;-61
2022/02/24 08:26:24;;;;;;;12.75;5.40;;;;;;;;;;5087588;28;20114;-60
2022/02/24 08:29:09;;;;;;;9.45;5.90;;;;;;;;;;5081628;28;20041;-64
2022/02/24 08:31:54;;;;;;;9.77;5.82;;;;;;;;;;5087942;28;20025;-62
2022/02/24 08:34:39;;;;;;;9.95;4.88;;;;;;;;;;5090023;28;20027;-65
2022/02/24 08:37:25;;;;;;;11.50;5.90;;;;;;;;;;5084457;28;20119;-61
2022/02/24 08:40:11;;;;;;;8.43;4.80;;;;;;;;;;5077613;28;20112;-59
2022/02/24 08:42:57;;;;;;;10.00;5.60;;;;;;;;;;5094720;28;20016;-60
2022/02/24 08:45:43;;;;;;;9.90;5.03;;;;;;;;;;5101783;28;20039;-61
2022/02/24 08:48:28;;;;;;;11.73;5.28;;;;;;;;;;5089776;28;20036;-59
2022/02/24 08:51:13;;;;;;;8.95;5.05;;;;;;;;;;5090152;28;20036;-59
2022/02/24 08:53:59;;;;;;;7.93;4.53;;;;;;;;;;5089982;28;20035;-59
2022/02/24 08:56:44;;;;;;;13.68;4.93;;;;;;;;;;5090283;28;20024;-62
2022/02/24 08:59:30;;;;;;;7.85;4.05;;;;;;;;;;5087740;28;20032;-61
2022/02/24 09:02:15;;;;;;;10.10;4.53;;;;;;;;;;5105524;28;20028;-60
2022/02/24 09:05:01;;;;;;;8.18;4.45;;;;;;;;;;5073959;28;20032;-59
2022/02/24 09:07:46;;;;;;;7.53;3.95;;;;;;;;;;5089930;28;20482;-60
2022/02/24 09:10:31;;;;;;;8.60;4.30;;;;;;;;;;5089462;28;20074;-61
2022/02/24 09:13:16;;;;;;;7.68;3.42;;;;;;;;;;5094784;28;20372;-60
2022/02/24 09:16:02;;;;;;;8.73;3.72;;;;;;;;;;5085317;28;20032;-65
2022/02/24 09:18:48;;;;;;;8.50;3.60;;;;;;;;;;5072957;28;20030;-65
2022/02/24 09:21:34;;;;;;;4.78;2.75;;;;;;;;;;5104618;27;20386;-67
2022/02/24 09:24:19;;;;;;;7.20;2.72;;;;;;;;;;5075924;28;20039;-69
2022/02/24 09:27:04;;;;;;;6.95;3.20;;;;;;;;;;5090905;28;20067;-68
2022/02/24 09:29:49;;;;;;;9.05;3.13;;;;;;;;;;5087108;28;20032;-62
2022/02/24 09:32:37;;;;;;;5.20;3.13;;;;;;;;;;5098117;28;20386;-61
2022/02/24 09:35:23;;;;;;;8.80;3.55;;;;;;;;;;5090419;28;20046;-68
2022/02/24 09:38:08;;;;;;;11.50;2.92;;;;;;;;;;5075426;28;20032;-65
2022/02/24 09:40:55;;;;;;;6.35;2.65;;;;;;;;;;5089362;28;20547;-68
2022/02/24 09:43:41;;;;;;;6.20;2.60;;;;;;;;;;5103971;28;20462;-71
2022/02/24 09:46:27;;;;;;;7.68;2.38;;;;;;;;;;5090413;28;20099;-70
2022/02/24 09:49:16;;;;;;;4.63;2.40;;;;;;;;;;5087388;28;20035;-70
2022/02/24 09:52:02;;;;;;;7.28;2.30;;;;;;;;;;5097812;28;20052;-63
2022/02/24 09:54:47;;;;;;;5.32;2.63;;;;;;;;;;5090881;28;20420;-65
2022/02/24 09:57:32;;;;;;;5.75;2.20;;;;;;;;;;5087498;28;20036;-64
2022/02/24 10:00:18;;;;;;;5.80;2.30;;;;;;;;;;5094140;28;20024;-64
2022/02/24 10:03:22;;;;;;;3.38;2.25;;;;;;;;;;5089989;28;20032;-62
2022/02/24 10:06:08;;;;;;;16.83;2.70;;;;;;;;;;5088435;28;20040;-62
2022/02/24 10:08:54;;;;;;;3.33;2.22;;;;;;;;;;5100260;28;21422;-59
2022/02/24 10:11:42;;;;;;;3.95;2.40;;;;;;;;;;5089865;28;20089;-60
2022/02/24 10:14:30;;;;;;;6.45;2.38;;;;;;;;;;5090543;28;20032;-60
2022/02/24 10:17:16;;;;;;;5.50;2.13;;;;;;;;;;5087308;28;20360;-61
2022/02/24 10:20:08;;;;;;;3.28;2.03;;;;;;;;;;5088525;28;20692;-60
2022/02/24 10:22:56;;;;;;;8.35;2.75;;;;;;;;;;5095636;28;20118;-60
2022/02/24 10:25:48;;;;;;;6.45;2.55;;;;;;;;;;5088834;28;20039;-63
2022/02/24 10:28:39;;;;;;;7.03;2.92;;;;;;;;;;5087642;28;20111;-61
2022/02/24 10:31:26;;;;;;;5.55;2.45;;;;;;;;;;5093154;28;20063;-62
2022/02/24 10:34:11;;;;;;;4.15;2.20;;;;;;;;;;5075263;28;20035;-62
2022/02/24 10:36:56;;;;;;;4.15;2.10;;;;;;;;;;5090607;28;20634;-65
2022/02/24 10:39:41;;;;;;;5.88;1.90;;;;;;;;;;5094770;28;20024;-63
2022/02/24 10:42:27;;;;;;;7.35;2.38;;;;;;;;;;5099611;28;20036;-64
2022/02/24 10:45:16;;;;;;;5.68;2.58;;;;;;;;;;5087728;28;20027;-61
2022/02/24 10:48:03;;;;;;;7.72;2.97;;;;;;;;;;5091817;28;20090;-66
2022/02/24 10:50:56;;;;;;;4.75;2.42;;;;;;;;;;5093614;28;20496;-67
2022/02/24 10:53:42;;;;;;;4.60;2.40;;;;;;;;;;5100072;28;20040;-69
2022/02/24 10:56:27;;;;;;;6.65;2.47;;;;;;;;;;5087397;28;20020;-69
2022/02/24 10:59:14;;;;;;;4.18;2.20;;;;;;;;;;5085229;28;20139;-66
2022/02/24 11:02:00;;;;;;;6.57;2.22;;;;;;;;;;5088509;28;20036;-63
2022/02/24 11:04:45;;;;;;;3.33;1.83;;;;;;;;;;5081485;28;20024;-64
2022/02/24 11:07:31;;;;;;;5.07;1.90;;;;;;;;;;5087838;28;20497;-71
2022/02/24 11:10:16;;;;;;;5.03;2.00;;;;;;;;;;5088912;28;20016;-67
2022/02/24 11:13:01;;;;;;;4.13;2.05;;;;;;;;;;5088350;28;20545;-70
2022/02/24 11:15:47;;;;;;;4.47;2.28;;;;;;;;;;5086102;28;20471;-70
2022/02/24 11:18:32;;;;;;;3.15;2.10;;;;;;;;;;5086876;28;20387;-69
2022/02/24 11:21:18;;;;;;;4.13;2.20;;;;;;;;;;5083362;28;21039;-63
2022/02/24 11:24:04;;;;;;;4.13;2.03;;;;;;;;;;5088636;28;20350;-66
2022/02/24 11:26:52;;;;;;;3.90;1.90;;;;;;;;;;5098331;28;20059;-63
2022/02/24 11:29:50;;;;;;;4.30;1.92;;;;;;;;;;5085445;28;20444;-64
2022/02/24 11:32:35;;;;;;;3.90;1.80;;;;;;;;;;5087879;28;20028;-64
2022/02/24 11:35:22;;;;;;;8.05;1.73;;;;;;;;;;5085326;28;20532;-63
2022/02/24 11:38:12;;;;;;;4.88;2.25;;;;;;;;;;5085886;28;20036;-64
2022/02/24 11:41:07;;;;;;;10.15;1.88;;;;;;;;;;5084351;28;20110;-69
2022/02/24 11:43:54;;;;;;;6.47;2.05;;;;;;;;;;5085730;28;20038;-62
2022/02/24 11:46:58;;;;;;;6.10;1.92;;;;;;;;;;5090752;28;20028;-61
2022/02/24 11:49:53;;;;;;;5.10;1.83;;;;;;;;;;5098707;28;20055;-62
2022/02/24 11:52:46;;;;;;;10.18;2.05;;;;;;;;;;5079668;28;20115;-60
2022/02/24 11:55:45;;;;;;;3.80;1.58;;;;;;;;;;5100756;28;21201;-61
2022/02/24 11:58:49;;;;;;;6.65;1.60;;;;;;;;;;5086511;28;20028;-68
2022/02/24 12:01:38;;;;;;;3.40;1.60;;;;;;;;;;5088656;28;20484;-66
2022/02/24 12:04:31;;;;;;;5.13;2.10;;;;;;;;;;5083822;28;20024;-63
2022/02/24 12:07:18;;;;;;;3.70;1.70;;;;;;;;;;5083259;28;20043;-63
2022/02/24 12:10:11;;;;;;;7.07;2.42;;;;;;;;;;5094171;28;20028;-62
2022/02/24 12:12:57;;;;;;;4.53;2.00;;;;;;;;;;5083911;28;20144;-64
2022/02/24 12:16:02;;;;;;;4.50;1.60;;;;;;;;;;5090326;28;20082;-65
2022/02/24 12:18:51;;;;;;;5.28;1.73;;;;;;;;;;5087638;28;20474;-63
2022/02/24 12:21:37;;;;;;;3.65;1.70;;;;;;;;;;5085415;28;20382;-63
2022/02/24 12:24:24;;;;;;;3.92;1.73;;;;;;;;;;5083651;28;20486;-60
2022/02/24 12:27:25;;;;;;;7.22;1.60;;;;;;;;;;5082550;28;20032;-65
2022/02/24 12:30:10;;;;;;;7.32;1.75;;;;;;;;;;5086942;28;20016;-66
2022/02/24 12:32:58;;;;;;;6.20;1.98;;;;;;;;;;5085757;28;20043;-62
2022/02/24 12:35:45;;;;;;;5.35;2.30;;;;;;;;;;5075290;28;20487;-69
2022/02/24 12:38:32;;;;;;;5.95;2.03;;;;;;;;;;5085199;28;20467;-65
2022/02/24 12:41:19;;;;;;;4.85;1.63;;;;;;;;;;5090367;28;20057;-64
2022/02/24 12:44:21;;;;;;;4.50;2.33;;;;;;;;;;5088839;28;20390;-64
2022/02/24 12:47:06;;;;;;;6.05;1.50;;;;;;;;;;5095471;28;20042;-63
2022/02/24 12:49:52;;;;;;;6.25;2.45;;;;;;;;;;5074116;28;20459;-64
2022/02/24 12:52:37;;;;;;;5.28;1.95;;;;;;;;;;5085684;28;20043;-70
2022/02/24 12:55:23;;;;;;;7.00;1.88;;;;;;;;;;5085846;28;20387;-79
2022/02/24 12:58:09;;;;;;;6.70;2.33;;;;;;;;;;5070672;28;20036;-68
2022/02/24 13:00:56;;;;;;;2.80;1.70;;;;;;;;;;5085863;28;20024;-66
2022/02/24 13:03:41;;;;;;;5.88;1.70;;;;;;;;;;5104338;28;20383;-70
2022/02/24 13:06:32;;;;;;;4.05;1.67;;;;;;;;;;5072620;28;20028;-68
2022/02/24 13:12:21;;;;;;;3.35;1.65;;;;;;;;;;5095088;28;20099;-71
2022/02/24 13:15:07;;;;;;;4.30;1.60;;;;;;;;;;5086516;28;20040;-69
2022/02/24 13:17:52;;;;;;;7.45;2.47;;;;;;;;;;5078916;28;20071;-67
2022/02/24 13:20:38;;;;;;;5.70;1.90;;;;;;;;;;5077026;28;20372;-66
2022/02/24 13:23:23;;;;;;;3.80;1.50;;;;;;;;;;5080823;28;20315;-70
2022/02/24 13:26:08;;;;;;;3.35;1.40;;;;;;;;;;5077523;28;20579;-68
2022/02/24 13:28:54;;;;;;;6.60;1.88;;;;;;;;;;5083332;28;20020;-61
2022/02/24 13:31:39;;;;;;;6.75;1.88;;;;;;;;;;5091528;28;20127;-68
2022/02/24 13:34:24;;;;;;;6.53;1.85;;;;;;;;;;5091257;28;20036;-61
2022/02/24 13:37:13;;;;;;;4.40;1.58;;;;;;;;;;5095620;28;20107;-62
2022/02/24 13:40:05;;;;;;;3.50;1.60;;;;;;;;;;5079204;28;20107;-63
2022/02/24 13:42:59;;;;;;;3.45;1.77;;;;;;;;;;5091443;28;20019;-62
2022/02/24 13:45:44;;;;;;;7.88;2.28;;;;;;;;;;5075299;28;20059;-64
2022/02/24 13:48:36;;;;;;;6.22;1.90;;;;;;;;;;5094100;28;20028;-62
2022/02/24 13:51:21;;;;;;;4.05;1.92;;;;;;;;;;5082509;28;20108;-69
2022/02/24 13:54:07;;;;;;;3.63;1.48;;;;;;;;;;5066264;28;20383;-69
2022/02/24 13:56:53;;;;;;;7.72;2.30;;;;;;;;;;5088185;28;20031;-69
2022/02/24 13:59:38;;;;;;;6.18;1.67;;;;;;;;;;5100858;28;20027;-71
2022/02/24 14:02:24;;;;;;;4.53;1.65;;;;;;;;;;5089418;28;20110;-69
2022/02/24 14:05:11;;;;;;;2.78;1.42;;;;;;;;;;5094364;28;20031;-70
2022/02/24 14:07:59;;;;;;;5.80;2.22;;;;;;;;;;5094588;28;20023;-62
2022/02/24 14:10:44;;;;;;;4.00;1.67;;;;;;;;;;5087733;28;20035;-63
2022/02/24 14:13:30;;;;;;;3.42;1.80;;;;;;;;;;5087317;28;20040;-62
2022/02/24 14:16:15;;;;;;;7.20;2.15;;;;;;;;;;5089367;28;20504;-62
2022/02/24 14:19:00;;;;;;;6.28;2.05;;;;;;;;;;5092533;28;20027;-63
2022/02/24 14:21:46;;;;;;;6.90;1.90;;;;;;;;;;5083278;28;20127;-61
2022/02/24 14:24:31;;;;;;;4.72;1.80;;;;;;;;;;5089278;28;20040;-60
2022/02/24 14:27:16;;;;;;;5.00;1.75;;;;;;;;;;5083898;28;20027;-63
2022/02/24 14:30:03;;;;;;;5.30;2.03;;;;;;;;;;5087802;28;20024;-68
2022/02/24 14:32:48;;;;;;;5.05;1.98;;;;;;;;;;5097224;28;20114;-69
2022/02/24 14:35:33;;;;;;;4.85;1.80;;;;;;;;;;5088946;28;20080;-67
2022/02/24 14:38:19;;;;;;;13.32;2.08;;;;;;;;;;5088172;28;20110;-68
2022/02/24 14:41:04;;;;;;;6.15;1.90;;;;;;;;;;5103372;28;20050;-70
2022/02/24 14:43:49;;;;;;;3.50;1.63;;;;;;;;;;5092024;28;20043;-60
2022/02/24 14:46:35;;;;;;;6.00;1.80;;;;;;;;;;5088214;28;20036;-69
2022/02/24 14:49:20;;;;;;;5.32;2.10;;;;;;;;;;5071547;28;20111;-68
2022/02/24 14:52:06;;;;;;;6.45;2.20;;;;;;;;;;5071561;28;20077;-68
2022/02/24 14:54:51;;;;;;;6.53;2.00;;;;;;;;;;5087689;28;20023;-67
2022/02/24 14:57:36;;;;;;;5.28;2.08;;;;;;;;;;5085450;28;20398;-70
2022/02/24 15:00:23;;;;;;;8.63;2.53;;;;;;;;;;5088729;28;20077;-68
2022/02/24 15:03:08;;;;;;;5.63;1.92;;;;;;;;;;5093976;28;20100;-60
2022/02/24 15:05:54;;;;;;;6.20;2.33;;;;;;;;;;5088215;28;20034;-62
2022/02/24 15:08:39;;;;;;;7.15;1.80;;;;;;;;;;5085505;28;20090;-63
2022/02/24 15:11:24;;;;;;;6.35;2.22;;;;;;;;;;5086473;28;20106;-63
2022/02/24 15:14:10;;;;;;;5.10;1.80;;;;;;;;;;5085862;28;20378;-64
2022/02/24 15:16:55;;;;;;;10.45;2.00;;;;;;;;;;5090962;28;20378;-63
2022/02/24 15:19:41;;;;;;;5.28;2.17;;;;;;;;;;5074151;28;20517;-62
2022/02/24 15:22:27;;;;;;;5.22;2.05;;;;;;;;;;5085670;28;20032;-62
2022/02/24 15:25:12;;;;;;;4.68;1.80;;;;;;;;;;5087276;28;20031;-66
2022/02/24 15:27:58;;;;;;;6.97;2.30;;;;;;;;;;5073210;28;20078;-68
2022/02/24 15:30:43;;;;;;;8.02;2.80;;;;;;;;;;5075543;28;20115;-70
2022/02/24 15:33:28;;;;;;;4.18;1.58;;;;;;;;;;5094055;28;20766;-69
2022/02/24 15:36:14;;;;;;;7.13;1.67;;;;;;;;;;5081220;28;20070;-70
2022/02/24 15:38:59;;;;;;;5.07;1.90;;;;;;;;;;5092986;28;20035;-62
2022/02/24 15:41:44;;;;;;;4.43;2.00;;;;;;;;;;5101911;28;20511;-62
2022/02/24 15:44:29;;;;;;;5.15;2.00;;;;;;;;;;5091753;28;20039;-62
2022/02/24 15:47:15;;;;;;;6.90;2.00;;;;;;;;;;5101542;28;20034;-61
2022/02/24 15:50:01;;;;;;;4.88;1.95;;;;;;;;;;5087468;28;20052;-65
2022/02/24 15:52:46;;;;;;;6.30;2.03;;;;;;;;;;5100605;28;20592;-62
2022/02/24 15:55:31;;;;;;;5.45;1.70;;;;;;;;;;5087536;28;20024;-60
2022/02/24 15:58:18;;;;;;;5.80;1.92;;;;;;;;;;5082425;28;20470;-62
2022/02/24 16:01:04;;;;;;;6.78;1.90;;;;;;;;;;5088338;28;20028;-60
2022/02/24 16:03:50;;;;;;;10.95;2.55;;;;;;;;;;5073490;28;20056;-63
2022/02/24 16:06:35;;;;;;;6.13;1.90;;;;;;;;;;5100560;28;20040;-63
2022/02/24 16:09:20;;;;;;;4.75;1.83;;;;;;;;;;5085141;28;20023;-64
2022/02/24 16:12:06;;;;;;;5.75;1.98;;;;;;;;;;5088299;28;20070;-61
2022/02/24 16:14:51;;;;;;;6.47;2.50;;;;;;;;;;5087504;28;20456;-61
2022/02/24 16:17:37;;;;;;;5.05;1.67;;;;;;;;;;5086150;28;20028;-67
2022/02/24 16:20:22;;;;;;;4.15;2.00;;;;;;;;;;5087655;28;20028;-63
2022/02/24 16:23:08;;;;;;;6.30;2.00;;;;;;;;;;5073143;28;20077;-62
2022/02/24 16:25:53;;;;;;;5.93;1.90;;;;;;;;;;5084173;28;20155;-61
2022/02/24 16:28:38;;;;;;;8.32;2.15;;;;;;;;;;5086506;28;20032;-62
2022/02/24 16:31:23;;;;;;;7.97;3.05;;;;;;;;;;5086102;28;20588;-62
2022/02/24 16:34:09;;;;;;;7.22;1.95;;;;;;;;;;5084996;28;20027;-69
2022/02/24 16:36:54;;;;;;;6.43;1.98;;;;;;;;;;5090893;28;20039;-64
2022/02/24 16:39:39;;;;;;;4.32;1.70;;;;;;;;;;5086974;28;20024;-64
2022/02/24 16:42:25;;;;;;;5.25;1.80;;;;;;;;;;5072836;28;20032;-63
2022/02/24 16:45:10;;;;;;;7.13;2.13;;;;;;;;;;5095957;28;20028;-60
2022/02/24 16:47:56;;;;;;;5.15;2.05;;;;;;;;;;5082255;28;20110;-62
2022/02/24 16:50:41;;;;;;;4.80;1.98;;;;;;;;;;5086222;28;20047;-61
2022/02/24 16:53:27;;;;;;;3.13;1.70;;;;;;;;;;5083895;28;20060;-65
2022/02/24 16:56:12;;;;;;;8.40;2.13;;;;;;;;;;5086193;28;20452;-61
2022/02/24 16:58:58;;;;;;;4.13;1.55;;;;;;;;;;5068257;28;20086;-64
2022/02/24 17:01:44;;;;;;;6.03;2.03;;;;;;;;;;5086847;28;20031;-61